Time;durP1;ratioP1;P1;durP2;ratioP2;P2;SDS_P1;SDS_P2;PMS_P1;PMS_P2;Temp;Humidity;BMP_temperature;BMP_pressure;BME280_temperature;BME280_humidity;BME280_pressure;Samples;Min_cycle;Max_cycle;Signal;HPM_P1;HPM_P2
2021/06/24 00:05:16;;;;;;;31.30;7.53;;;24.70;79.50;;;;;;4991326;28;20093;-67
2021/06/24 00:07:41;;;;;;;33.38;6.97;;;24.70;79.70;;;;;;4970635;28;20030;-70
2021/06/24 00:10:07;;;;;;;26.15;6.97;;;24.70;79.80;;;;;;4972618;28;20066;-74
2021/06/24 00:12:33;;;;;;;22.55;6.00;;;24.60;79.90;;;;;;4975188;28;20104;-69
2021/06/24 00:14:59;;;;;;;31.73;7.10;;;24.60;80.00;;;;;;4984827;28;20477;-71
2021/06/24 00:17:24;;;;;;;27.95;6.75;;;24.50;79.90;;;;;;4975477;28;20034;-68
2021/06/24 00:19:50;;;;;;;33.25;7.25;;;24.50;80.00;;;;;;4975712;28;20043;-70
2021/06/24 00:22:15;;;;;;;33.95;7.28;;;24.40;79.90;;;;;;4975377;28;20022;-73
2021/06/24 00:24:41;;;;;;;35.30;7.25;;;24.40;80.20;;;;;;4984981;28;20114;-69
2021/06/24 00:27:07;;;;;;;25.17;6.55;;;24.40;80.40;;;;;;4971393;28;20041;-71
2021/06/24 00:29:32;;;;;;;37.95;7.13;;;24.30;80.30;;;;;;4975009;28;20034;-74
2021/06/24 00:32:00;;;;;;;31.38;6.55;;;24.30;80.50;;;;;;4974235;28;20038;-71
2021/06/24 00:34:26;;;;;;;28.80;6.40;;;24.30;80.60;;;;;;4975895;28;20118;-71
2021/06/24 00:36:51;;;;;;;26.45;6.80;;;24.30;80.70;;;;;;4973461;28;20117;-69
2021/06/24 00:39:17;;;;;;;29.15;7.88;;;24.30;80.80;;;;;;4975747;28;20452;-72
2021/06/24 00:41:44;;;;;;;28.17;7.07;;;24.30;80.90;;;;;;4974265;28;20484;-67
2021/06/24 00:44:10;;;;;;;26.80;7.00;;;24.30;81.20;;;;;;4991653;28;20539;-69
2021/06/24 00:46:35;;;;;;;27.15;7.07;;;24.20;81.30;;;;;;4991715;28;20032;-70
2021/06/24 00:49:03;;;;;;;25.33;7.00;;;24.20;81.50;;;;;;4972942;28;20449;-71
2021/06/24 00:51:29;;;;;;;25.02;6.90;;;24.20;81.70;;;;;;4972896;28;20037;-67
2021/06/24 00:53:55;;;;;;;28.10;7.15;;;24.10;81.80;;;;;;4975422;28;20030;-70
2021/06/24 00:56:33;;;;;;;26.52;7.80;;;24.20;81.90;;;;;;4987044;28;20389;-69
2021/06/24 00:59:03;;;;;;;27.88;6.57;;;24.10;82.00;;;;;;4976981;28;20117;-69
2021/06/24 01:01:31;;;;;;;26.33;6.82;;;24.10;82.00;;;;;;4989213;28;20026;-69
2021/06/24 01:03:57;;;;;;;27.67;6.70;;;24.10;81.80;;;;;;4978918;28;20097;-69
2021/06/24 01:06:22;;;;;;;26.33;6.20;;;24.10;81.80;;;;;;4994230;28;20389;-70
2021/06/24 01:08:48;;;;;;;26.83;6.60;;;24.10;81.70;;;;;;4993027;28;20031;-67
2021/06/24 01:11:14;;;;;;;25.92;6.65;;;24.00;81.50;;;;;;4987876;28;20479;-74
2021/06/24 01:13:42;;;;;;;20.67;6.20;;;24.10;81.70;;;;;;4975039;28;20113;-67
2021/06/24 01:16:09;;;;;;;27.02;6.57;;;24.10;81.50;;;;;;4992520;28;20035;-70
2021/06/24 01:18:34;;;;;;;21.50;6.07;;;24.10;81.50;;;;;;4979085;28;20062;-72
2021/06/24 01:21:00;;;;;;;25.15;6.35;;;24.10;81.70;;;;;;4975117;28;20050;-72
2021/06/24 01:23:26;;;;;;;23.60;6.78;;;24.10;81.50;;;;;;4978720;28;20062;-70
2021/06/24 01:25:52;;;;;;;26.92;7.32;;;24.10;81.30;;;;;;4987604;28;20080;-74
2021/06/24 01:28:17;;;;;;;22.83;6.18;;;24.10;81.30;;;;;;4995956;28;20035;-72
2021/06/24 01:30:44;;;;;;;21.08;6.00;;;24.10;81.10;;;;;;4978111;28;20483;-70
2021/06/24 01:33:10;;;;;;;21.58;6.03;;;24.20;81.30;;;;;;4977558;28;20389;-74
2021/06/24 01:35:36;;;;;;;24.65;6.03;;;24.20;81.70;;;;;;4977935;28;20092;-69
2021/06/24 01:38:05;;;;;;;28.23;7.13;;;24.20;81.20;;;;;;4994944;28;20038;-71
2021/06/24 01:40:31;;;;;;;31.27;7.43;;;24.20;81.20;;;;;;4975069;28;20030;-71
2021/06/24 01:42:58;;;;;;;27.00;6.47;;;24.20;81.00;;;;;;4976709;28;20041;-71
2021/06/24 01:45:24;;;;;;;31.40;6.72;;;24.30;81.20;;;;;;4976323;28;20435;-69
2021/06/24 01:47:50;;;;;;;26.65;6.38;;;24.30;81.00;;;;;;4975006;28;20038;-69
2021/06/24 01:50:16;;;;;;;29.35;6.75;;;24.30;80.80;;;;;;4963832;28;20477;-73
2021/06/24 01:52:46;;;;;;;36.65;8.70;;;24.30;80.70;;;;;;4974001;28;20454;-69
2021/06/24 01:55:14;;;;;;;28.13;7.57;;;24.30;80.70;;;;;;4982957;28;20069;-70
2021/06/24 01:57:40;;;;;;;31.85;10.45;;;24.30;80.70;;;;;;4976062;28;20032;-69
2021/06/24 02:00:11;;;;;;;39.80;13.10;;;24.30;80.70;;;;;;4994905;28;20101;-70
2021/06/24 02:02:36;;;;;;;41.20;13.13;;;24.30;80.60;;;;;;4976569;28;20022;-71
2021/06/24 02:05:06;;;;;;;30.23;9.95;;;24.40;80.20;;;;;;4977878;28;20057;-69
2021/06/24 02:07:32;;;;;;;47.40;12.55;;;24.50;79.40;;;;;;4977674;28;20353;-68
2021/06/24 02:09:58;;;;;;;45.00;14.52;;;24.50;79.20;;;;;;4976492;28;20050;-71
2021/06/24 02:12:24;;;;;;;55.20;19.50;;;24.60;78.60;;;;;;4977213;28;20046;-69
2021/06/24 02:14:49;;;;;;;50.95;17.40;;;24.60;78.50;;;;;;4993091;28;20057;-68
2021/06/24 02:17:15;;;;;;;57.10;16.88;;;24.70;78.60;;;;;;4993638;28;20042;-70
2021/06/24 02:19:41;;;;;;;39.63;12.25;;;24.70;78.70;;;;;;4993748;28;20384;-69
2021/06/24 02:22:07;;;;;;;34.47;10.43;;;24.70;78.90;;;;;;4975948;28;20027;-68
2021/06/24 02:24:32;;;;;;;30.23;8.98;;;24.70;79.00;;;;;;4994443;28;20030;-73
2021/06/24 02:26:58;;;;;;;31.17;8.95;;;24.60;79.10;;;;;;4974449;28;20380;-74
2021/06/24 02:29:23;;;;;;;30.58;8.60;;;24.70;79.20;;;;;;4994527;28;20042;-69
2021/06/24 02:31:49;;;;;;;25.35;6.82;;;24.70;79.30;;;;;;4977287;28;20026;-73
2021/06/24 02:34:18;;;;;;;28.27;6.85;;;24.70;79.00;;;;;;4992645;28;20027;-69
2021/06/24 02:36:43;;;;;;;26.08;7.20;;;24.70;78.90;;;;;;4977130;28;20053;-73
2021/06/24 02:39:09;;;;;;;24.30;6.95;;;24.60;79.00;;;;;;4991961;28;20125;-68
2021/06/24 02:41:35;;;;;;;20.52;6.38;;;24.70;78.80;;;;;;4992645;28;20104;-70
2021/06/24 02:44:03;;;;;;;29.58;6.50;;;24.70;78.50;;;;;;4975839;28;20027;-67
2021/06/24 02:46:29;;;;;;;29.38;7.38;;;24.80;78.10;;;;;;4972592;28;20036;-70
2021/06/24 02:48:54;;;;;;;22.95;6.80;;;24.90;78.00;;;;;;4971761;28;20038;-71
2021/06/24 02:51:20;;;;;;;21.00;6.40;;;24.90;78.10;;;;;;4991944;28;20068;-70
2021/06/24 02:53:46;;;;;;;19.15;5.97;;;25.00;78.30;;;;;;4990015;28;20357;-71
2021/06/24 02:56:11;;;;;;;23.52;7.25;;;25.00;78.30;;;;;;4968935;28;20432;-73
2021/06/24 02:58:37;;;;;;;15.93;5.85;;;25.00;78.20;;;;;;4987648;28;20385;-73
2021/06/24 03:01:03;;;;;;;23.90;6.40;;;25.10;77.90;;;;;;4975725;28;20033;-69
2021/06/24 03:03:29;;;;;;;22.13;6.30;;;25.10;77.80;;;;;;4993758;28;20030;-70
2021/06/24 03:05:54;;;;;;;22.60;6.05;;;25.20;77.60;;;;;;4974768;28;20503;-68
2021/06/24 03:08:21;;;;;;;24.55;6.45;;;25.30;77.60;;;;;;4991909;28;20034;-69
2021/06/24 03:10:47;;;;;;;23.85;6.13;;;25.40;77.40;;;;;;4976023;28;20483;-73
2021/06/24 03:13:13;;;;;;;17.55;6.05;;;25.50;77.20;;;;;;4974794;28;20074;-72
2021/06/24 03:15:39;;;;;;;14.30;5.68;;;25.60;76.90;;;;;;4976457;28;20054;-73
2021/06/24 03:18:05;;;;;;;21.15;5.57;;;25.70;76.90;;;;;;4973980;28;20034;-71
2021/06/24 03:20:31;;;;;;;19.08;7.43;;;25.90;76.50;;;;;;4989409;28;20026;-75
2021/06/24 03:23:00;;;;;;;21.45;6.05;;;26.00;76.00;;;;;;4974460;28;20026;-71
2021/06/24 03:25:27;;;;;;;18.60;6.30;;;26.10;75.50;;;;;;4972757;28;20109;-71
2021/06/24 03:27:53;;;;;;;24.05;5.90;;;26.30;75.20;;;;;;4974401;28;20038;-69
2021/06/24 03:30:19;;;;;;;16.40;5.78;;;26.40;74.90;;;;;;4989801;28;20095;-70
2021/06/24 03:32:45;;;;;;;23.05;5.97;;;26.60;74.50;;;;;;4987628;28;20026;-71
2021/06/24 03:35:11;;;;;;;25.27;7.07;;;26.60;74.10;;;;;;4969471;28;20392;-70
2021/06/24 03:37:37;;;;;;;25.88;5.95;;;26.80;73.70;;;;;;4975137;28;20117;-69
2021/06/24 03:40:06;;;;;;;27.38;6.90;;;26.90;73.50;;;;;;4990709;28;20121;-72
2021/06/24 03:42:31;;;;;;;24.05;6.07;;;27.10;73.30;;;;;;4980005;28;20049;-72
2021/06/24 03:44:57;;;;;;;22.23;5.93;;;27.20;73.00;;;;;;4987078;28;20462;-72
2021/06/24 03:47:23;;;;;;;28.73;6.40;;;27.40;72.70;;;;;;4975836;28;20038;-69
2021/06/24 03:49:48;;;;;;;26.05;6.05;;;27.60;72.40;;;;;;4982292;28;20050;-70
2021/06/24 03:52:14;;;;;;;25.65;6.43;;;27.80;71.80;;;;;;4989973;28;20091;-70
2021/06/24 03:54:40;;;;;;;19.05;5.53;;;28.00;71.60;;;;;;4965262;28;20453;-74
2021/06/24 03:57:06;;;;;;;28.10;6.60;;;28.20;71.00;;;;;;4968980;28;20030;-70
2021/06/24 03:59:31;;;;;;;22.13;6.10;;;28.50;70.30;;;;;;4974508;28;20084;-69
2021/06/24 04:01:57;;;;;;;22.88;5.70;;;28.60;69.80;;;;;;4973587;28;20484;-73
2021/06/24 04:04:23;;;;;;;21.60;6.22;;;28.90;69.50;;;;;;4989453;28;20040;-71
2021/06/24 04:06:48;;;;;;;23.85;6.03;;;29.20;69.00;;;;;;4975040;28;20113;-72
2021/06/24 04:09:14;;;;;;;23.05;6.43;;;29.30;68.60;;;;;;4974759;28;20069;-72
2021/06/24 04:11:41;;;;;;;27.85;7.65;;;29.60;68.10;;;;;;4989345;28;20066;-71
2021/06/24 04:14:06;;;;;;;22.75;6.50;;;29.80;67.10;;;;;;4974805;28;20073;-70
2021/06/24 04:16:32;;;;;;;25.08;6.70;;;30.00;66.80;;;;;;4990486;28;20050;-75
2021/06/24 04:18:58;;;;;;;25.92;7.00;;;30.20;66.70;;;;;;4974470;28;20125;-69
2021/06/24 04:21:24;;;;;;;22.77;7.20;;;30.40;66.40;;;;;;4988048;28;20425;-75
2021/06/24 04:23:50;;;;;;;26.50;7.50;;;30.60;65.60;;;;;;4973682;28;20464;-73
2021/06/24 04:26:15;;;;;;;25.70;6.45;;;30.80;65.10;;;;;;4987123;28;20022;-71
2021/06/24 04:28:41;;;;;;;22.90;6.40;;;30.90;64.40;;;;;;4974434;28;20066;-69
2021/06/24 04:31:07;;;;;;;25.58;6.60;;;31.20;64.00;;;;;;4990654;28;20030;-70
2021/06/24 04:33:36;;;;;;;24.98;5.80;;;31.40;64.40;;;;;;4991115;28;20034;-69
2021/06/24 04:36:02;;;;;;;25.08;6.10;;;31.60;62.70;;;;;;4977692;28;20540;-71
2021/06/24 04:38:27;;;;;;;23.65;6.65;;;31.90;61.40;;;;;;4988982;28;20120;-70
2021/06/24 04:40:53;;;;;;;20.27;6.35;;;32.20;60.30;;;;;;4995299;28;20085;-73
2021/06/24 04:43:19;;;;;;;25.65;5.75;;;32.50;59.50;;;;;;4973965;28;20057;-72
2021/06/24 04:45:44;;;;;;;18.33;5.07;;;32.70;58.90;;;;;;4996159;28;20054;-68
2021/06/24 04:48:10;;;;;;;21.63;5.95;;;32.90;58.30;;;;;;4973549;28;20077;-69
2021/06/24 04:50:36;;;;;;;17.15;5.93;;;33.00;57.10;;;;;;4978930;28;20026;-69
2021/06/24 04:53:03;;;;;;;23.08;5.80;;;33.20;56.20;;;;;;4977099;28;20027;-72
2021/06/24 04:55:38;;;;;;;18.10;5.35;;;33.50;55.30;;;;;;4996499;28;20109;-71
2021/06/24 04:58:04;;;;;;;16.45;4.95;;;33.70;55.20;;;;;;4991978;28;20177;-79
2021/06/24 05:00:30;;;;;;;19.23;5.93;;;33.90;54.70;;;;;;4971858;28;20030;-73
2021/06/24 05:02:56;;;;;;;19.50;5.20;;;34.10;54.70;;;;;;4993680;28;20042;-70
2021/06/24 05:05:22;;;;;;;19.85;5.60;;;34.20;54.40;;;;;;4978894;28;20392;-72
2021/06/24 05:07:47;;;;;;;23.35;5.60;;;34.50;53.60;;;;;;4996558;28;20086;-72
2021/06/24 05:10:14;;;;;;;20.80;5.55;;;34.70;52.80;;;;;;4978516;28;20033;-72
2021/06/24 05:12:40;;;;;;;20.38;5.82;;;34.90;52.70;;;;;;4977829;28;20069;-72
2021/06/24 05:15:06;;;;;;;30.50;4.90;;;35.10;52.20;;;;;;4993203;28;20089;-69
2021/06/24 05:20:18;;;;;;;22.23;6.10;;;35.20;52.20;;;;;;4995394;28;20042;-72
2021/06/24 05:22:49;;;;;;;24.42;5.95;;;35.20;50.50;;;;;;4978576;28;20125;-72
2021/06/24 05:25:16;;;;;;;18.75;5.57;;;35.40;50.00;;;;;;4975683;28;20432;-73
2021/06/24 05:27:42;;;;;;;20.00;5.80;;;35.50;49.60;;;;;;4978558;28;20073;-67
2021/06/24 05:30:08;;;;;;;18.77;5.57;;;35.50;49.20;;;;;;4975527;28;20433;-67
2021/06/24 05:32:34;;;;;;;21.83;5.32;;;35.60;49.60;;;;;;4978059;28;20030;-73
2021/06/24 05:35:00;;;;;;;19.73;5.25;;;35.70;49.90;;;;;;4993481;28;20049;-71
2021/06/24 05:37:26;;;;;;;17.55;5.28;;;35.80;50.00;;;;;;4995888;28;20033;-72
2021/06/24 05:39:52;;;;;;;32.88;6.20;;;35.90;50.80;;;;;;4975607;28;20043;-71
2021/06/24 05:42:18;;;;;;;22.25;5.60;;;36.00;50.10;;;;;;4977878;28;20034;-69
2021/06/24 05:44:46;;;;;;;21.75;8.70;;;36.10;50.10;;;;;;4973896;28;20090;-70
2021/06/24 05:47:12;;;;;;;19.95;5.53;;;36.10;49.10;;;;;;4985193;28;20038;-68
2021/06/24 05:49:38;;;;;;;27.90;6.45;;;36.00;48.80;;;;;;4974163;28;20072;-68
2021/06/24 05:52:06;;;;;;;21.00;5.53;;;36.10;48.80;;;;;;4977461;28;20443;-70
2021/06/24 05:54:32;;;;;;;20.85;6.10;;;36.20;48.90;;;;;;4975777;28;20037;-70
2021/06/24 05:56:58;;;;;;;23.13;7.05;;;36.10;48.80;;;;;;4976234;28;20030;-71
2021/06/24 05:59:23;;;;;;;27.42;6.30;;;36.10;48.90;;;;;;4991207;28;20042;-68
2021/06/24 06:01:51;;;;;;;21.38;5.28;;;36.30;49.70;;;;;;4969003;28;20443;-67
2021/06/24 06:04:17;;;;;;;20.95;5.30;;;36.50;48.10;;;;;;4973262;28;20034;-69
2021/06/24 06:06:44;;;;;;;23.70;5.80;;;36.60;47.70;;;;;;4976228;28;20026;-68
2021/06/24 06:09:10;;;;;;;21.35;5.43;;;36.50;47.70;;;;;;4978079;28;20125;-69
2021/06/24 06:11:36;;;;;;;18.33;5.68;;;36.30;48.30;;;;;;4995105;28;20540;-69
2021/06/24 06:14:02;;;;;;;18.95;5.90;;;36.30;48.90;;;;;;4977905;28;20030;-69
2021/06/24 06:16:28;;;;;;;15.63;5.15;;;36.40;48.60;;;;;;4995155;28;20026;-72
2021/06/24 06:18:57;;;;;;;18.48;5.50;;;36.40;48.00;;;;;;4978043;28;20037;-69
2021/06/24 06:21:24;;;;;;;18.48;5.70;;;36.50;48.30;;;;;;4995483;28;20029;-68
2021/06/24 06:23:49;;;;;;;21.40;6.30;;;36.70;48.40;;;;;;4995272;28;20018;-69
2021/06/24 06:26:15;;;;;;;21.23;5.97;;;36.90;48.30;;;;;;4995386;28;20476;-68
2021/06/24 06:28:41;;;;;;;19.80;5.72;;;37.20;48.20;;;;;;4995139;28;20460;-69
2021/06/24 06:31:07;;;;;;;21.50;6.38;;;37.40;47.80;;;;;;4995355;28;20031;-69
2021/06/24 06:33:33;;;;;;;17.05;5.95;;;37.60;47.80;;;;;;4995121;28;20381;-69
2021/06/24 06:35:59;;;;;;;21.73;5.63;;;37.70;47.50;;;;;;4977834;28;20030;-70
2021/06/24 06:38:25;;;;;;;17.17;5.43;;;38.00;47.30;;;;;;4977332;28;20500;-70
2021/06/24 06:40:50;;;;;;;22.15;5.95;;;38.10;46.20;;;;;;4977744;28;20042;-68
2021/06/24 06:43:18;;;;;;;21.40;5.85;;;37.90;46.20;;;;;;4977833;28;20473;-74
2021/06/24 06:45:47;;;;;;;23.27;5.95;;;37.80;46.90;;;;;;4995023;28;20019;-67
2021/06/24 06:48:14;;;;;;;13.95;5.28;;;37.90;46.50;;;;;;4994813;28;20034;-69
2021/06/24 06:50:42;;;;;;;16.55;5.10;;;38.00;45.70;;;;;;4977413;28;20077;-69
2021/06/24 06:53:08;;;;;;;20.75;4.82;;;38.20;45.50;;;;;;4977351;28;20397;-70
2021/06/24 06:55:35;;;;;;;21.08;5.18;;;38.40;44.90;;;;;;4976359;28;20026;-67
2021/06/24 06:58:05;;;;;;;15.63;4.75;;;38.30;45.10;;;;;;4981572;28;20026;-69
2021/06/24 07:00:33;;;;;;;20.95;5.88;;;38.00;45.40;;;;;;4977374;28;20503;-70
2021/06/24 07:02:58;;;;;;;21.08;6.38;;;37.80;45.50;;;;;;4977135;28;20026;-70
2021/06/24 07:05:25;;;;;;;21.70;5.30;;;37.90;45.90;;;;;;4994478;28;20384;-69
2021/06/24 07:07:51;;;;;;;21.15;5.10;;;38.00;46.00;;;;;;4977368;28;20037;-68
2021/06/24 07:10:17;;;;;;;19.30;5.32;;;38.20;46.00;;;;;;4994262;28;20027;-69
2021/06/24 07:12:43;;;;;;;19.30;5.10;;;38.40;45.70;;;;;;4994294;28;20081;-67
2021/06/24 07:15:10;;;;;;;16.27;5.32;;;38.60;46.90;;;;;;4994256;28;20054;-70
2021/06/24 07:17:35;;;;;;;19.45;5.55;;;38.90;47.30;;;;;;4994546;28;20046;-69
2021/06/24 07:20:02;;;;;;;19.83;5.43;;;39.20;47.10;;;;;;4994057;28;20142;-69
2021/06/24 07:22:28;;;;;;;17.23;5.25;;;39.50;46.00;;;;;;4976782;28;20145;-69
2021/06/24 07:24:53;;;;;;;16.50;5.10;;;39.50;45.40;;;;;;4994354;28;20483;-71
2021/06/24 07:27:22;;;;;;;19.25;5.03;;;39.50;44.90;;;;;;4976994;28;20033;-69
2021/06/24 07:29:48;;;;;;;14.10;4.88;;;39.60;44.30;;;;;;4994588;28;20061;-69
2021/06/24 07:32:14;;;;;;;22.52;5.03;;;39.60;43.90;;;;;;4977839;28;20026;-69
2021/06/24 07:34:39;;;;;;;16.00;6.57;;;39.60;44.10;;;;;;4978001;28;20018;-70
2021/06/24 07:37:05;;;;;;;19.98;5.68;;;39.60;44.00;;;;;;4977271;28;20026;-70
2021/06/24 07:39:31;;;;;;;16.05;4.80;;;39.50;44.80;;;;;;4977076;28;20030;-70
2021/06/24 07:41:57;;;;;;;17.42;4.43;;;39.60;45.30;;;;;;4994281;28;20031;-69
2021/06/24 07:44:23;;;;;;;13.70;4.68;;;39.70;44.50;;;;;;4993668;28;20022;-69
2021/06/24 07:46:48;;;;;;;17.33;4.78;;;39.80;44.30;;;;;;4976598;28;20033;-68
2021/06/24 07:49:14;;;;;;;16.65;4.88;;;39.90;44.30;;;;;;4976104;28;20026;-69
2021/06/24 07:51:40;;;;;;;17.23;5.25;;;39.90;44.30;;;;;;4976261;28;20456;-71
2021/06/24 07:54:05;;;;;;;15.88;4.88;;;40.00;44.10;;;;;;4976349;28;20027;-70
2021/06/24 07:56:31;;;;;;;15.05;4.90;;;40.10;43.80;;;;;;4993994;28;20523;-70
2021/06/24 07:58:57;;;;;;;17.77;5.40;;;40.20;43.20;;;;;;4976284;28;20039;-70
2021/06/24 08:01:23;;;;;;;16.67;4.78;;;40.20;42.80;;;;;;4993586;28;20054;-69
2021/06/24 08:03:51;;;;;;;24.25;4.97;;;40.20;42.20;;;;;;4993639;28;20026;-70
2021/06/24 08:06:16;;;;;;;17.20;4.40;;;40.30;42.30;;;;;;4993352;28;20195;-72
2021/06/24 08:08:42;;;;;;;17.20;4.50;;;40.40;42.30;;;;;;4994251;28;20121;-70
2021/06/24 08:11:08;;;;;;;14.18;4.30;;;40.60;42.30;;;;;;4993739;28;20037;-71
2021/06/24 08:13:34;;;;;;;16.25;4.30;;;40.80;42.70;;;;;;4993552;28;20026;-68
2021/06/24 08:16:00;;;;;;;14.20;4.40;;;40.80;42.00;;;;;;4976473;28;20030;-70
2021/06/24 08:18:26;;;;;;;13.50;4.10;;;40.80;42.20;;;;;;4975608;28;20480;-70
2021/06/24 08:20:51;;;;;;;15.45;3.63;;;40.90;42.70;;;;;;4976381;28;20057;-69
2021/06/24 08:23:18;;;;;;;16.95;4.20;;;40.90;41.90;;;;;;4976067;28;20042;-71
2021/06/24 08:25:45;;;;;;;12.23;3.80;;;40.90;41.20;;;;;;4993929;28;20030;-68
2021/06/24 08:28:16;;;;;;;12.13;3.70;;;40.80;41.60;;;;;;4975981;28;20560;-70
2021/06/24 08:30:44;;;;;;;11.05;3.78;;;40.80;42.20;;;;;;4976049;28;20022;-70
2021/06/24 08:33:13;;;;;;;12.77;4.15;;;40.90;42.20;;;;;;4976023;28;20077;-69
2021/06/24 08:35:39;;;;;;;13.52;4.50;;;41.10;42.30;;;;;;4971289;28;20392;-70
2021/06/24 08:38:05;;;;;;;18.35;5.25;;;41.30;42.80;;;;;;4993222;28;20026;-71
2021/06/24 08:40:31;;;;;;;15.57;4.13;;;41.30;42.10;;;;;;4975902;28;20027;-70
2021/06/24 08:42:57;;;;;;;19.75;4.60;;;41.30;42.10;;;;;;4993528;28;20034;-70
2021/06/24 08:45:22;;;;;;;20.13;4.30;;;41.20;41.90;;;;;;4975926;28;20034;-70
2021/06/24 08:47:50;;;;;;;15.55;4.57;;;41.20;42.10;;;;;;4979690;28;20030;-69
2021/06/24 08:50:17;;;;;;;17.80;4.28;;;41.20;42.30;;;;;;4993187;28;20384;-70
2021/06/24 08:52:49;;;;;;;15.32;4.00;;;41.30;41.80;;;;;;4993539;28;20054;-70
2021/06/24 08:55:16;;;;;;;14.15;4.40;;;41.40;43.10;;;;;;4976047;28;20069;-67
2021/06/24 08:57:42;;;;;;;13.60;4.25;;;41.60;43.20;;;;;;4975702;28;20511;-68
2021/06/24 09:00:09;;;;;;;13.50;3.70;;;41.80;42.30;;;;;;4975609;28;20042;-67
2021/06/24 09:02:50;;;;;;;18.08;4.13;;;41.90;41.90;;;;;;4993194;28;20027;-67
2021/06/24 09:05:16;;;;;;;15.80;4.43;;;41.90;41.40;;;;;;4977133;28;20022;-69
2021/06/24 09:07:53;;;;;;;17.60;4.20;;;41.90;41.10;;;;;;4976785;28;20386;-67
2021/06/24 09:10:21;;;;;;;12.63;4.20;;;42.00;41.60;;;;;;4975669;28;20025;-65
2021/06/24 09:13:02;;;;;;;12.05;4.07;;;41.90;41.80;;;;;;4993515;28;20050;-68
2021/06/24 09:15:36;;;;;;;12.15;3.78;;;42.00;42.90;;;;;;4993202;28;20034;-67
2021/06/24 09:18:02;;;;;;;14.00;3.95;;;41.90;41.00;;;;;;4975446;28;20031;-69
2021/06/24 09:20:33;;;;;;;11.77;4.22;;;41.80;40.90;;;;;;4978445;28;20053;-67
2021/06/24 09:23:15;;;;;;;14.23;4.50;;;41.70;40.80;;;;;;4996998;28;20058;-67
2021/06/24 09:25:46;;;;;;;15.02;3.75;;;41.50;40.50;;;;;;4979147;28;20027;-68
2021/06/24 09:28:13;;;;;;;13.43;4.32;;;41.50;40.60;;;;;;4979007;28;20081;-70
2021/06/24 09:30:42;;;;;;;11.77;4.40;;;41.50;40.50;;;;;;4978779;28;20023;-70
2021/06/24 09:33:12;;;;;;;12.43;4.25;;;41.40;40.80;;;;;;4978929;28;20511;-68
2021/06/24 09:35:38;;;;;;;10.20;4.03;;;41.40;41.30;;;;;;4978510;28;20033;-69
2021/06/24 09:38:13;;;;;;;14.68;4.13;;;41.50;41.80;;;;;;4978516;28;20026;-70
2021/06/24 09:40:52;;;;;;;12.70;4.05;;;41.70;42.00;;;;;;4978960;28;20220;-71
2021/06/24 09:43:27;;;;;;;12.55;3.88;;;41.80;42.40;;;;;;4978954;28;20062;-70
2021/06/24 09:46:03;;;;;;;11.23;3.65;;;41.80;41.40;;;;;;4978494;28;20070;-70
2021/06/24 09:48:34;;;;;;;16.90;4.25;;;41.80;41.10;;;;;;4978886;28;20037;-68
2021/06/24 09:51:07;;;;;;;14.65;4.43;;;41.80;41.70;;;;;;4996049;28;20027;-70
2021/06/24 09:53:45;;;;;;;13.02;4.55;;;41.70;41.20;;;;;;4996287;28;20022;-69
2021/06/24 09:56:21;;;;;;;13.88;4.97;;;41.60;41.20;;;;;;4978202;28;20500;-70
2021/06/24 09:58:48;;;;;;;16.05;4.18;;;41.60;41.10;;;;;;4978785;28;20030;-70
2021/06/24 10:01:28;;;;;;;15.68;3.90;;;41.60;41.80;;;;;;4995898;28;20033;-69
2021/06/24 10:03:56;;;;;;;17.50;4.20;;;41.60;42.20;;;;;;4996111;28;20464;-70
2021/06/24 10:06:23;;;;;;;13.65;3.92;;;41.50;43.40;;;;;;4977817;28;20085;-71
2021/06/24 10:08:49;;;;;;;15.05;4.40;;;41.60;42.70;;;;;;4995772;28;20034;-71
2021/06/24 10:11:15;;;;;;;14.93;4.03;;;41.60;42.40;;;;;;4978318;28;20101;-70
2021/06/24 10:13:41;;;;;;;18.27;4.53;;;41.60;42.30;;;;;;4978447;28;20040;-69
2021/06/24 10:16:08;;;;;;;16.50;4.38;;;41.60;42.10;;;;;;4978008;28;20022;-70
2021/06/24 10:18:35;;;;;;;18.05;5.68;;;41.50;42.20;;;;;;4995044;28;20491;-69
2021/06/24 10:21:02;;;;;;;20.48;5.15;;;41.60;42.50;;;;;;4978299;28;20034;-71
2021/06/24 10:23:29;;;;;;;14.15;5.10;;;41.70;43.60;;;;;;4977792;28;20030;-71
2021/06/24 10:25:55;;;;;;;18.20;5.22;;;41.70;43.20;;;;;;4978370;28;20088;-68
2021/06/24 10:28:23;;;;;;;20.17;4.95;;;41.70;43.30;;;;;;4978077;28;20376;-70
2021/06/24 10:30:49;;;;;;;20.52;12.15;;;41.90;42.90;;;;;;4981291;28;20029;-69
2021/06/24 10:33:16;;;;;;;18.98;10.07;;;41.90;43.10;;;;;;4996483;28;20034;-69
2021/06/24 10:35:53;;;;;;;17.25;10.88;;;41.90;43.00;;;;;;4978172;28;20022;-68
2021/06/24 10:38:22;;;;;;;19.98;7.60;;;41.60;43.70;;;;;;4996004;28;20068;-70
2021/06/24 10:41:00;;;;;;;14.52;6.00;;;41.50;44.10;;;;;;4995195;28;20469;-69
2021/06/24 10:43:45;;;;;;;12.43;4.13;;;41.30;44.60;;;;;;4995153;28;20022;-69
2021/06/24 10:46:13;;;;;;;13.30;3.92;;;41.10;43.50;;;;;;4977491;28;20033;-69
2021/06/24 10:48:38;;;;;;;12.75;3.85;;;40.80;43.40;;;;;;4977409;28;20065;-69
2021/06/24 10:51:06;;;;;;;18.58;4.90;;;40.50;43.40;;;;;;4994894;28;20074;-70
2021/06/24 10:53:32;;;;;;;24.25;4.78;;;40.30;43.60;;;;;;4978161;28;20092;-69
2021/06/24 10:55:58;;;;;;;13.25;3.55;;;40.00;43.50;;;;;;4977588;28;20109;-70
2021/06/24 10:58:26;;;;;;;14.95;3.08;;;39.80;43.60;;;;;;4994817;28;20043;-69
2021/06/24 11:00:56;;;;;;;11.80;3.70;;;39.50;43.10;;;;;;4977040;28;20085;-73
2021/06/24 11:03:40;;;;;;;15.50;3.97;;;39.10;43.80;;;;;;4995147;28;20023;-69
2021/06/24 11:06:15;;;;;;;15.45;4.93;;;38.70;44.20;;;;;;4994323;28;20037;-70
2021/06/24 11:08:42;;;;;;;14.65;4.53;;;38.20;45.10;;;;;;4976882;28;20120;-68
2021/06/24 11:11:10;;;;;;;11.93;4.20;;;37.80;46.10;;;;;;4994717;28;20026;-69
2021/06/24 11:13:39;;;;;;;16.98;4.32;;;37.40;46.60;;;;;;4994278;28;20042;-69
2021/06/24 11:16:08;;;;;;;22.15;4.57;;;37.10;48.00;;;;;;4976854;28;20584;-70
2021/06/24 11:18:33;;;;;;;20.08;4.70;;;36.90;48.60;;;;;;4994198;28;20029;-70
2021/06/24 11:21:01;;;;;;;16.70;4.22;;;36.70;48.90;;;;;;4977108;28;20026;-70
2021/06/24 11:23:49;;;;;;;24.95;6.30;;;36.40;48.90;;;;;;4994070;28;20412;-70
2021/06/24 11:26:28;;;;;;;26.65;5.43;;;36.10;49.20;;;;;;4994058;28;20563;-70
2021/06/24 11:28:56;;;;;;;17.80;4.57;;;35.80;50.10;;;;;;4976821;28;20069;-69
2021/06/24 11:36:36;;;;;;;20.98;5.25;;;35.40;50.40;;;;;;4994039;28;20434;-70
2021/06/24 11:39:03;;;;;;;21.35;4.90;;;35.30;51.40;;;;;;4994056;28;20030;-69
2021/06/24 11:41:29;;;;;;;24.00;5.53;;;35.20;51.30;;;;;;4976868;28;20027;-71
2021/06/24 11:44:00;;;;;;;22.83;4.82;;;35.20;52.20;;;;;;4976322;28;20505;-69
2021/06/24 11:46:34;;;;;;;24.40;8.70;;;35.10;52.30;;;;;;4976099;28;20026;-69
2021/06/24 12:05:06;;;;;;;18.92;5.28;;;34.70;51.80;;;;;;4998707;28;19906;-68
2021/06/24 12:07:36;;;;;;;20.80;5.03;;;34.60;52.10;;;;;;4977288;28;20046;-69
2021/06/24 12:10:04;;;;;;;21.73;5.70;;;34.50;52.10;;;;;;4976553;28;20487;-73
2021/06/24 12:12:32;;;;;;;16.17;4.63;;;34.50;52.40;;;;;;4973240;28;20055;-69
2021/06/24 12:15:01;;;;;;;21.83;6.30;;;34.40;52.50;;;;;;4972926;28;20443;-69
2021/06/24 12:17:28;;;;;;;22.13;4.85;;;34.30;52.70;;;;;;4973039;28;20426;-70
2021/06/24 12:20:03;;;;;;;19.98;4.97;;;34.20;53.00;;;;;;4972747;28;20130;-68
2021/06/24 12:22:32;;;;;;;17.13;5.00;;;34.20;53.50;;;;;;4972937;28;20089;-70
2021/06/24 12:24:59;;;;;;;22.20;6.10;;;34.20;53.80;;;;;;4973056;28;20038;-69
2021/06/24 12:27:26;;;;;;;17.90;6.10;;;34.30;53.70;;;;;;4972992;28;20031;-70
2021/06/24 12:29:58;;;;;;;21.67;5.82;;;34.30;53.40;;;;;;4972792;28;20034;-70
2021/06/24 12:32:25;;;;;;;20.25;5.25;;;34.30;53.60;;;;;;4973755;28;20021;-69
2021/06/24 12:34:55;;;;;;;28.15;8.27;;;34.40;53.60;;;;;;4972599;28;20034;-69
2021/06/24 12:37:33;;;;;;;24.27;8.88;;;34.40;54.30;;;;;;4972817;28;20027;-70
2021/06/24 12:40:00;;;;;;;23.17;6.45;;;34.40;54.70;;;;;;4972691;28;20038;-69
2021/06/24 12:42:26;;;;;;;29.52;6.05;;;34.40;55.00;;;;;;4972375;28;20481;-69
2021/06/24 12:44:51;;;;;;;23.20;5.00;;;34.50;55.00;;;;;;4973929;28;20033;-69
2021/06/24 12:47:43;;;;;;;22.95;4.80;;;34.40;53.20;;;;;;4973732;28;20023;-69
2021/06/24 12:50:26;;;;;;;26.67;4.47;;;34.30;52.90;;;;;;4972679;28;20030;-70
2021/06/24 12:52:56;;;;;;;26.30;4.97;;;34.10;52.90;;;;;;4972293;28;20030;-70
2021/06/24 12:55:39;;;;;;;24.90;4.90;;;34.10;53.20;;;;;;4976921;28;20110;-68
2021/06/24 12:58:12;;;;;;;24.23;5.20;;;34.00;53.10;;;;;;4959995;28;20031;-71
2021/06/24 13:00:40;;;;;;;28.35;5.05;;;34.00;53.20;;;;;;4970191;28;20023;-70
2021/06/24 13:03:07;;;;;;;33.72;5.97;;;33.90;52.40;;;;;;4976011;28;20026;-70
2021/06/24 13:05:33;;;;;;;29.88;5.53;;;33.90;52.40;;;;;;4976107;28;20022;-68